PWSweather.com
Personal Weather Stations
Station Observations
SONYA
Sergiev PosadRU

Sergiev PosadRU

Lat: 56.28148651, Lon: 38.05462646

Elevation: 741

Station Type: Fine offset WH1091

Latest ConditionsUpdated 4:20:00 AM GMT+03:03 Tuesday, May 30, 2017
Currently Today's Max Today's Min Today's Average
Temperature 54.0°F12.2°C 55.9°F13.3°C 54.0°F12.2°C 55.1°F12.8°C
Dew Point 53.3°F11.8°C 55.7°F13.2°C 53.3°F11.8°C 54.7°F12.6°C
Winds 1.6 mph SW2.6 kmh SW 3.1 mph SW5.0 kmh SW - 0.8 mph 1.3 kmh
Wind Gusts 4.5 mph7.2 kmh 5.4 mph8.7 kmh - -
Humidity 97% 99% 97% 98%
Pressure 28.87 in977.7 mb 28.87 in977.7 mb 28.82 in976.0 mb -
Precipitation - 0.27 in6.9 mm - -
Hour Temp Dew Point Humidity Winds Wind Gusts Pressure Precip Precip Rate Daily Precip Total
04:20 AM 54.0°F12.2°C 53.3°F11.8°C 97% 1.6 mph SW2.6 kmh SW 4.5 mph7.2 kmh 28.87 in977.7 mb 0.00 in0.0 mm 0.00 in0.0 mm 0.27 in6.9 mm
04:15 AM 54.0°F12.2°C 53.3°F11.8°C 97% Calm Calm -- 28.86 in977.3 mb 0.00 in0.0 mm 0.00 in0.0 mm 0.27 in6.9 mm
04:10 AM 54.1°F12.3°C 53.5°F11.9°C 97% Calm Calm 1.6 mph2.6 kmh 28.87 in977.7 mb 0.00 in0.0 mm 0.00 in0.0 mm 0.27 in6.9 mm
04:05 AM 54.3°F12.4°C 53.7°F12.1°C 97% 0.7 mph S1.1 kmh S 1.6 mph2.6 kmh 28.86 in977.3 mb 0.00 in0.0 mm 0.00 in0.0 mm 0.27 in6.9 mm
04:00 AM 54.5°F12.5°C 53.9°F12.2°C 97% Calm Calm 0.7 mph1.1 kmh 28.86 in977.3 mb 0.00 in0.0 mm 0.00 in0.0 mm 0.27 in6.9 mm
03:55 AM 54.7°F12.6°C 54.0°F12.2°C 97% Calm Calm 0.7 mph1.1 kmh 28.86 in977.3 mb 0.00 in0.0 mm 0.00 in0.0 mm 0.27 in6.9 mm
03:50 AM 54.9°F12.7°C 54.2°F12.3°C 97% 0.7 mph SW1.1 kmh SW 1.6 mph2.6 kmh 28.86 in977.3 mb 0.00 in0.0 mm 0.00 in0.0 mm 0.27 in6.9 mm
03:45 AM 54.9°F12.7°C 54.2°F12.3°C 97% 0.7 mph NW1.1 kmh NW 3.1 mph5.0 kmh 28.85 in977.0 mb 0.00 in0.0 mm 0.00 in0.0 mm 0.27 in6.9 mm
03:40 AM 54.9°F12.7°C 54.2°F12.3°C 97% Calm Calm 1.6 mph2.6 kmh 28.85 in977.0 mb 0.00 in0.0 mm 0.00 in0.0 mm 0.27 in6.9 mm
03:35 AM 54.9°F12.7°C 54.2°F12.3°C 97% 0.7 mph SW1.1 kmh SW 3.1 mph5.0 kmh 28.85 in977.0 mb 0.00 in0.0 mm 0.00 in0.0 mm 0.27 in6.9 mm
03:30 AM 55.0°F12.8°C 54.4°F12.4°C 97% 0.7 mph S1.1 kmh S 1.6 mph2.6 kmh 28.85 in977.0 mb 0.00 in0.0 mm 0.00 in0.0 mm 0.27 in6.9 mm
03:25 AM 55.0°F12.8°C 54.4°F12.4°C 97% 0.7 mph SW1.1 kmh SW 3.1 mph5.0 kmh 28.85 in977.0 mb 0.00 in0.0 mm 0.00 in0.0 mm 0.27 in6.9 mm
03:20 AM 55.0°F12.8°C 54.4°F12.4°C 97% 0.7 mph NE1.1 kmh NE 1.6 mph2.6 kmh 28.85 in977.0 mb 0.00 in0.0 mm 0.00 in0.0 mm 0.27 in6.9 mm
03:15 AM 55.2°F12.9°C 54.6°F12.6°C 97% 2.2 mph SW3.5 kmh SW 4.5 mph7.2 kmh 28.85 in977.0 mb 0.00 in0.0 mm 0.00 in0.0 mm 0.27 in6.9 mm
03:10 AM 55.2°F12.9°C 54.6°F12.6°C 97% 1.6 mph S2.6 kmh S 5.4 mph8.7 kmh 28.85 in977.0 mb 0.00 in0.0 mm 0.00 in0.0 mm 0.27 in6.9 mm
03:05 AM 55.2°F12.9°C 54.6°F12.6°C 97% 2.2 mph S3.5 kmh S 4.5 mph7.2 kmh 28.85 in977.0 mb 0.00 in0.0 mm 0.00 in0.0 mm 0.27 in6.9 mm
03:00 AM 55.4°F13.0°C 55.2°F12.9°C 99% 3.1 mph SW5.0 kmh SW 4.5 mph7.2 kmh 28.85 in977.0 mb 0.00 in0.0 mm 0.00 in0.0 mm 0.27 in6.9 mm
02:55 AM 55.4°F13.0°C 55.2°F12.9°C 99% Calm Calm 1.6 mph2.6 kmh 28.84 in976.6 mb 0.00 in0.0 mm 0.00 in0.0 mm 0.27 in6.9 mm
02:50 AM 55.4°F13.0°C 55.2°F12.9°C 99% Calm Calm 1.6 mph2.6 kmh 28.84 in976.6 mb 0.00 in0.0 mm 0.00 in0.0 mm 0.27 in6.9 mm
02:45 AM 55.4°F13.0°C 55.2°F12.9°C 99% 0.7 mph SW1.1 kmh SW 2.2 mph3.5 kmh 28.84 in976.6 mb 0.00 in0.0 mm 0.00 in0.0 mm 0.27 in6.9 mm
02:40 AM 55.4°F13.0°C 55.2°F12.9°C 99% 2.2 mph S3.5 kmh S 3.1 mph5.0 kmh 28.84 in976.6 mb 0.00 in0.0 mm 0.00 in0.0 mm 0.27 in6.9 mm
02:35 AM 55.4°F13.0°C 55.2°F12.9°C 99% 1.6 mph SW2.6 kmh SW 2.2 mph3.5 kmh 28.84 in976.6 mb 0.00 in0.0 mm 0.00 in0.0 mm 0.27 in6.9 mm
02:30 AM 55.4°F13.0°C 55.2°F12.9°C 99% 1.6 mph S2.6 kmh S 3.8 mph6.1 kmh 28.84 in976.6 mb 0.00 in0.0 mm 0.00 in0.0 mm 0.27 in6.9 mm
02:25 AM 55.4°F13.0°C 55.2°F12.9°C 99% 0.7 mph SW1.1 kmh SW 1.6 mph2.6 kmh 28.83 in976.3 mb 0.00 in0.0 mm 0.00 in0.0 mm 0.27 in6.9 mm
02:20 AM 55.4°F13.0°C 55.2°F12.9°C 99% 0.7 mph W1.1 kmh W 2.2 mph3.5 kmh 28.84 in976.6 mb 0.00 in0.0 mm 0.00 in0.0 mm 0.27 in6.9 mm
02:15 AM 55.4°F13.0°C 55.2°F12.9°C 99% 1.6 mph W2.6 kmh W 3.8 mph6.1 kmh 28.83 in976.3 mb 0.00 in0.0 mm 0.00 in0.0 mm 0.27 in6.9 mm
02:10 AM 55.4°F13.0°C 55.2°F12.9°C 99% 1.6 mph 2.6 kmh 3.1 mph5.0 kmh 28.83 in976.3 mb 0.00 in0.0 mm 0.00 in0.0 mm 0.27 in6.9 mm
02:05 AM 55.4°F13.0°C 55.2°F12.9°C 99% 0.7 mph SW1.1 kmh SW 2.2 mph3.5 kmh 28.83 in976.3 mb 0.00 in0.0 mm 0.00 in0.0 mm 0.27 in6.9 mm
02:00 AM 55.2°F12.9°C 54.6°F12.6°C 97% Calm Calm 0.7 mph1.1 kmh 28.83 in976.3 mb 0.00 in0.0 mm 0.00 in0.0 mm 0.27 in6.9 mm
01:55 AM 55.2°F12.9°C 54.6°F12.6°C 97% 1.6 mph SW2.6 kmh SW 2.2 mph3.5 kmh 28.83 in976.3 mb 0.00 in0.0 mm 0.00 in0.0 mm 0.28 in7.1 mm
01:50 AM 55.2°F12.9°C 54.6°F12.6°C 97% 0.7 mph SW1.1 kmh SW 2.2 mph3.5 kmh 28.84 in976.6 mb 0.00 in0.0 mm 0.00 in0.0 mm 0.30 in7.6 mm
01:45 AM 55.2°F12.9°C 54.6°F12.6°C 97% Calm Calm 1.6 mph2.6 kmh 28.83 in976.3 mb 0.00 in0.0 mm 0.00 in0.0 mm 0.31 in7.9 mm
01:40 AM 55.2°F12.9°C 54.6°F12.6°C 97% 2.2 mph SW3.5 kmh SW 4.5 mph7.2 kmh 28.83 in976.3 mb 0.00 in0.0 mm 0.00 in0.0 mm 0.31 in7.9 mm
01:35 AM 55.2°F12.9°C 54.6°F12.6°C 97% Calm Calm 1.6 mph2.6 kmh 28.82 in976.0 mb 0.00 in0.0 mm 0.00 in0.0 mm 0.32 in8.1 mm
01:30 AM 55.2°F12.9°C 54.6°F12.6°C 97% 0.7 mph S1.1 kmh S 1.6 mph2.6 kmh 28.83 in976.3 mb 0.00 in0.0 mm 0.00 in0.0 mm 0.32 in8.1 mm
01:25 AM 55.2°F12.9°C 54.6°F12.6°C 97% Calm Calm 0.7 mph1.1 kmh 28.82 in976.0 mb 0.00 in0.0 mm 0.00 in0.0 mm 0.32 in8.1 mm
01:20 AM 55.2°F12.9°C 54.6°F12.6°C 97% 0.7 mph S1.1 kmh S 1.6 mph2.6 kmh 28.83 in976.3 mb 0.00 in0.0 mm 0.00 in0.0 mm 0.32 in8.1 mm
01:15 AM 55.0°F12.8°C 54.4°F12.4°C 97% 1.6 mph E2.6 kmh E 2.2 mph3.5 kmh 28.83 in976.3 mb 0.00 in0.0 mm 0.00 in0.0 mm 0.32 in8.1 mm
01:10 AM 55.0°F12.8°C 54.4°F12.4°C 97% Calm Calm -- 28.82 in976.0 mb 0.00 in0.0 mm 0.00 in0.0 mm 0.32 in8.1 mm
01:05 AM 54.9°F12.7°C 54.2°F12.3°C 97% Calm Calm -- 28.82 in976.0 mb 0.00 in0.0 mm 0.00 in0.0 mm 0.32 in8.1 mm
01:00 AM 55.0°F12.8°C 54.4°F12.4°C 97% Calm Calm -- 28.82 in976.0 mb 0.00 in0.0 mm 0.00 in0.0 mm 0.32 in8.1 mm
12:55 AM 55.0°F12.8°C 54.4°F12.4°C 97% Calm Calm -- 28.82 in976.0 mb 0.00 in0.0 mm 0.00 in0.0 mm 0.32 in8.1 mm
12:50 AM 55.2°F12.9°C 54.6°F12.6°C 97% Calm Calm -- 28.82 in976.0 mb 0.00 in0.0 mm 0.00 in0.0 mm 0.32 in8.1 mm
12:45 AM 55.0°F12.8°C 54.4°F12.4°C 97% Calm Calm 0.7 mph1.1 kmh 28.83 in976.3 mb 0.00 in0.0 mm 0.00 in0.0 mm 0.32 in8.1 mm
12:40 AM 55.0°F12.8°C 54.4°F12.4°C 97% Calm Calm 0.7 mph1.1 kmh 28.83 in976.3 mb 0.00 in0.0 mm 0.00 in0.0 mm 0.32 in8.1 mm
12:35 AM 55.2°F12.9°C 54.6°F12.6°C 97% Calm Calm 0.7 mph1.1 kmh 28.83 in976.3 mb 0.00 in0.0 mm 0.00 in0.0 mm 0.32 in8.1 mm
12:30 AM 55.2°F12.9°C 54.6°F12.6°C 97% 0.7 mph SW1.1 kmh SW 1.6 mph2.6 kmh 28.83 in976.3 mb 0.00 in0.0 mm 0.00 in0.0 mm 0.32 in8.1 mm
12:25 AM 55.4°F13.0°C 55.2°F12.9°C 99% 0.7 mph S1.1 kmh S 2.2 mph3.5 kmh 28.84 in976.6 mb 0.00 in0.0 mm 0.00 in0.0 mm 0.32 in8.1 mm
12:20 AM 55.4°F13.0°C 55.2°F12.9°C 99% 0.7 mph SW1.1 kmh SW 3.1 mph5.0 kmh 28.83 in976.3 mb 0.00 in0.0 mm 0.00 in0.0 mm 0.32 in8.1 mm
12:15 AM 55.8°F13.2°C 55.5°F13.1°C 99% 2.2 mph SW3.5 kmh SW 3.1 mph5.0 kmh 28.83 in976.3 mb 0.00 in0.0 mm 0.00 in0.0 mm 0.32 in8.1 mm
12:10 AM 55.8°F13.2°C 55.5°F13.1°C 99% 0.7 mph SW1.1 kmh SW 1.6 mph2.6 kmh 28.83 in976.3 mb 0.00 in0.0 mm 0.00 in0.0 mm 0.32 in8.1 mm
12:05 AM 55.9°F13.3°C 55.7°F13.2°C 99% 1.6 mph SW2.6 kmh SW 3.1 mph5.0 kmh 28.83 in976.3 mb 0.00 in0.0 mm 0.00 in0.0 mm 0.32 in8.1 mm
12:00 AM 55.9°F13.3°C 55.7°F13.2°C 99% 1.6 mph S2.6 kmh S 2.2 mph3.5 kmh 28.82 in976.0 mb 0.00 in0.0 mm 0.00 in0.0 mm 0.32 in8.1 mm